createdAt,value
2023-02-17T00:04:21.392Z,15.60
2023-02-17T00:06:48.302Z,15.70
2023-02-17T00:09:15.720Z,15.73
2023-02-17T00:11:42.706Z,15.76
2023-02-17T00:14:12.687Z,15.69
2023-02-17T00:16:39.885Z,15.73
2023-02-17T00:19:07.137Z,15.80
2023-02-17T00:21:34.197Z,15.71
2023-02-17T00:24:01.636Z,15.73
2023-02-17T00:26:36.424Z,15.66
2023-02-17T00:29:04.678Z,15.61
2023-02-17T00:31:33.319Z,15.80
2023-02-17T00:34:00.753Z,15.89
2023-02-17T00:36:28.694Z,15.73
2023-02-17T00:38:58.034Z,15.61
2023-02-17T00:41:28.080Z,15.46
2023-02-17T00:43:59.501Z,15.52
2023-02-17T00:46:27.556Z,15.57
2023-02-17T00:48:57.069Z,15.74
2023-02-17T00:51:25.396Z,15.70
2023-02-17T00:53:52.631Z,15.84
2023-02-17T00:56:20.528Z,15.73
2023-02-17T00:58:47.599Z,15.81
2023-02-17T01:01:15.399Z,15.81
2023-02-17T01:03:43.199Z,15.87
2023-02-17T01:06:21.683Z,15.93
2023-02-17T01:08:48.756Z,15.86
2023-02-17T01:11:18.290Z,15.96
2023-02-17T01:13:45.798Z,15.81
2023-02-17T01:16:18.567Z,15.76
2023-02-17T01:18:45.811Z,15.66
2023-02-17T01:21:19.213Z,15.73
2023-02-17T01:23:46.449Z,15.86
2023-02-17T01:26:14.606Z,15.66
2023-02-17T01:28:41.713Z,15.86
2023-02-17T01:31:10.887Z,15.83
2023-02-17T01:33:39.766Z,15.83
2023-02-17T01:36:11.243Z,15.79
2023-02-17T01:38:41.547Z,15.76
2023-02-17T01:41:09.736Z,15.80
2023-02-17T01:43:36.882Z,15.84
2023-02-17T01:46:07.303Z,15.89
2023-02-17T01:48:41.756Z,15.50
2023-02-17T01:51:14.526Z,15.44
2023-02-17T01:53:50.916Z,15.73
2023-02-17T01:56:20.066Z,15.67
2023-02-17T01:58:55.315Z,15.81
2023-02-17T02:01:22.868Z,15.79
2023-02-17T02:03:52.196Z,15.61
2023-02-17T02:06:25.231Z,15.67
2023-02-17T02:09:01.030Z,15.52
2023-02-17T02:11:29.363Z,15.73
2023-02-17T02:13:58.086Z,15.69
2023-02-17T02:16:35.151Z,15.77
2023-02-17T02:19:24.699Z,15.86
2023-02-17T02:22:30.150Z,15.80
2023-02-17T02:25:22.357Z,15.80
2023-02-17T02:28:06.952Z,15.47
2023-02-17T02:31:06.265Z,15.79
2023-02-17T02:33:43.187Z,15.60
2023-02-17T02:36:23.628Z,15.63
2023-02-17T02:38:59.898Z,15.74
2023-02-17T02:41:37.541Z,16.01
2023-02-17T02:44:10.263Z,16.05
2023-02-17T02:46:37.663Z,15.77
2023-02-17T02:49:08.158Z,15.98
2023-02-17T02:51:54.970Z,15.73
2023-02-17T02:54:46.649Z,15.84
2023-02-17T02:57:31.364Z,15.87
2023-02-17T03:00:14.295Z,15.54
2023-02-17T03:02:49.681Z,15.60
2023-02-17T03:05:29.065Z,15.64
2023-02-17T03:08:03.522Z,15.57
2023-02-17T03:10:31.093Z,15.63
2023-02-17T03:12:58.708Z,15.59
2023-02-17T03:15:31.112Z,15.59
2023-02-17T03:18:02.333Z,15.29
2023-02-17T03:20:37.212Z,15.57
2023-02-17T03:23:07.258Z,15.74
2023-02-17T03:25:34.982Z,15.77
2023-02-17T03:28:02.116Z,15.83
2023-02-17T03:30:29.560Z,15.83
2023-02-17T03:33:02.724Z,16.10
2023-02-17T03:35:31.489Z,16.11
2023-02-17T03:37:59.912Z,15.74
2023-02-17T03:40:26.974Z,15.71
2023-02-17T03:42:56.437Z,15.93
2023-02-17T03:45:26.604Z,15.70
2023-02-17T03:47:54.034Z,16.00
2023-02-17T03:50:21.154Z,15.94
2023-02-17T03:52:50.993Z,16.08
2023-02-17T03:55:18.276Z,15.79
2023-02-17T03:57:45.114Z,15.91
2023-02-17T04:00:14.275Z,15.81
2023-02-17T04:02:44.010Z,15.91
2023-02-17T04:05:11.600Z,16.01
2023-02-17T04:07:39.020Z,15.96
2023-02-17T04:10:09.639Z,16.25
2023-02-17T04:12:40.950Z,16.21
2023-02-17T04:15:08.744Z,16.29
2023-02-17T04:17:38.307Z,16.29
2023-02-17T04:20:10.226Z,16.34
2023-02-17T04:22:37.262Z,16.49
2023-02-17T04:25:06.650Z,16.40
2023-02-17T04:27:38.472Z,16.35
2023-02-17T04:30:12.517Z,16.22
2023-02-17T04:32:40.855Z,16.20
2023-02-17T04:35:13.204Z,15.97
2023-02-17T04:37:43.323Z,16.42
2023-02-17T04:40:13.269Z,16.47
2023-02-17T04:42:41.625Z,16.36
2023-02-17T04:45:10.480Z,16.47
2023-02-17T04:47:40.491Z,16.45
2023-02-17T04:50:10.125Z,16.32
2023-02-17T04:52:40.601Z,16.41
2023-02-17T04:55:09.079Z,16.55
2023-02-17T04:57:37.668Z,16.44
2023-02-17T05:00:10.295Z,16.51
2023-02-17T05:02:38.378Z,16.51
2023-02-17T05:05:08.006Z,16.35
2023-02-17T05:07:35.221Z,16.38
2023-02-17T05:10:02.293Z,16.32
2023-02-17T05:12:31.995Z,16.21
2023-02-17T05:14:59.074Z,16.26
2023-02-17T05:17:27.801Z,16.05
2023-02-17T05:19:54.652Z,16.14
2023-02-17T05:22:21.703Z,16.41
2023-02-17T05:24:48.828Z,16.24
2023-02-17T05:27:16.255Z,16.24
2023-02-17T05:29:43.597Z,16.31
2023-02-17T05:32:10.733Z,16.51
2023-02-17T05:34:39.676Z,16.32
2023-02-17T05:37:06.853Z,16.42
2023-02-17T05:39:33.712Z,16.38
2023-02-17T05:42:00.773Z,16.48
2023-02-17T05:44:28.242Z,16.45
2023-02-17T05:46:55.292Z,16.42
2023-02-17T05:49:22.215Z,16.29
2023-02-17T05:51:50.720Z,16.38
2023-02-17T05:54:17.514Z,16.42
2023-02-17T05:56:44.459Z,16.68
2023-02-17T05:59:11.410Z,16.87
2023-02-17T06:01:38.243Z,16.63
2023-02-17T06:04:06.499Z,16.66
2023-02-17T06:06:33.322Z,16.66
2023-02-17T06:09:03.640Z,16.40
2023-02-17T06:11:30.512Z,16.63
2023-02-17T06:13:57.555Z,16.38
2023-02-17T06:16:24.543Z,16.69
2023-02-17T06:18:51.566Z,16.66
2023-02-17T06:21:18.359Z,16.49
2023-02-17T06:23:45.858Z,16.29
2023-02-17T06:26:14.529Z,16.51
2023-02-17T06:28:41.515Z,16.59
2023-02-17T06:31:08.414Z,16.41
2023-02-17T06:33:36.071Z,16.51
2023-02-17T06:36:03.089Z,16.58
2023-02-17T06:38:30.074Z,16.58
2023-02-17T06:40:56.980Z,16.72
2023-02-17T06:43:25.202Z,16.49
2023-02-17T06:45:52.117Z,16.69
2023-02-17T06:48:19.301Z,16.80
2023-02-17T06:50:46.309Z,16.66
2023-02-17T06:53:13.512Z,16.75
2023-02-17T06:55:40.388Z,16.62
2023-02-17T06:58:07.222Z,16.59
2023-02-17T07:00:35.501Z,16.59
2023-02-17T07:03:02.655Z,16.72
2023-02-17T07:05:30.070Z,16.72
2023-02-17T07:07:57.657Z,16.36
2023-02-17T07:10:24.617Z,16.51
2023-02-17T07:12:51.652Z,16.62
2023-02-17T07:15:18.859Z,16.32
2023-02-17T07:17:47.081Z,16.32
2023-02-17T07:20:14.090Z,16.41
2023-02-17T07:25:35.665Z,16.35
2023-02-17T07:28:02.819Z,16.40
2023-02-17T07:30:29.826Z,16.20
2023-02-17T07:32:58.098Z,15.84
2023-02-17T07:35:25.454Z,15.84
2023-02-17T07:37:52.489Z,16.02
2023-02-17T07:40:19.686Z,16.24
2023-02-17T07:42:46.732Z,16.08
2023-02-17T07:45:13.926Z,15.91
2023-02-17T07:47:40.920Z,16.05
2023-02-17T07:50:10.228Z,16.20
2023-02-17T07:52:37.103Z,16.15
2023-02-17T07:55:05.186Z,16.28
2023-02-17T07:57:32.323Z,16.14
2023-02-17T07:59:59.405Z,16.35
2023-02-17T08:02:26.604Z,15.90
2023-02-17T08:04:53.651Z,15.84
2023-02-17T08:07:22.207Z,16.07
2023-02-17T08:09:49.188Z,16.41
2023-02-17T08:12:18.993Z,15.97
2023-02-17T08:14:45.947Z,16.18
2023-02-17T08:17:13.049Z,16.00
2023-02-17T08:19:48.012Z,16.14
2023-02-17T08:22:16.238Z,16.08
2023-02-17T08:24:45.297Z,16.18
2023-02-17T08:27:14.183Z,15.97
2023-02-17T08:29:41.569Z,16.20
2023-02-17T08:32:09.177Z,16.08
2023-02-17T08:34:36.868Z,16.28
2023-02-17T08:37:06.532Z,16.15
2023-02-17T08:39:35.429Z,16.31
2023-02-17T08:42:04.885Z,16.12
2023-02-17T08:44:35.134Z,16.22
2023-02-17T08:47:02.463Z,16.31
2023-02-17T08:49:29.282Z,16.04
2023-02-17T08:51:56.390Z,16.28
2023-02-17T08:54:23.480Z,16.31
2023-02-17T08:56:50.545Z,16.53
2023-02-17T08:59:18.959Z,16.20
2023-02-17T09:01:46.449Z,16.20
2023-02-17T09:04:18.102Z,16.15
2023-02-17T09:06:49.094Z,15.98
2023-02-17T09:09:19.866Z,16.17
2023-02-17T09:11:46.802Z,16.28
2023-02-17T09:14:14.343Z,15.93
2023-02-17T09:16:42.743Z,16.14
2023-02-17T09:19:09.699Z,15.81
2023-02-17T09:21:37.863Z,16.14
2023-02-17T09:24:05.985Z,16.20
2023-02-17T09:26:35.459Z,15.93
2023-02-17T09:29:03.668Z,16.00
2023-02-17T09:31:32.204Z,16.02
2023-02-17T09:34:00.606Z,16.10
2023-02-17T09:36:31.199Z,16.28
2023-02-17T09:38:59.222Z,16.17
2023-02-17T09:41:34.675Z,16.25
2023-02-17T09:44:02.422Z,15.81
2023-02-17T09:47:02.419Z,16.32
2023-02-17T09:49:38.562Z,15.98
2023-02-17T09:52:15.206Z,16.32
2023-02-17T09:54:55.435Z,16.17
2023-02-17T09:57:30.932Z,16.20
2023-02-17T10:00:03.670Z,16.45
2023-02-17T10:02:46.321Z,16.44
2023-02-17T10:05:20.113Z,16.72
2023-02-17T10:07:53.251Z,16.34
2023-02-17T10:10:25.986Z,16.38
2023-02-17T10:12:59.563Z,16.45
2023-02-17T10:15:32.023Z,16.45
2023-02-17T10:18:10.264Z,16.29
2023-02-17T10:20:44.218Z,16.48
2023-02-17T10:23:18.805Z,16.29
2023-02-17T10:26:12.594Z,16.26
2023-02-17T10:28:51.057Z,16.04
2023-02-17T10:31:32.812Z,16.24
2023-02-17T10:34:05.099Z,16.31
2023-02-17T10:36:47.888Z,16.24
2023-02-17T10:39:19.867Z,16.36
2023-02-17T10:41:50.452Z,16.18
2023-02-17T10:44:22.699Z,16.45
2023-02-17T10:46:51.494Z,16.47
2023-02-17T10:49:27.610Z,16.47
2023-02-17T10:52:01.635Z,16.26
2023-02-17T10:54:36.873Z,16.38
2023-02-17T10:57:12.382Z,16.01
2023-02-17T10:59:41.841Z,16.28
2023-02-17T11:02:19.392Z,16.48
2023-02-17T11:04:49.423Z,16.38
2023-02-17T11:07:23.775Z,16.42
2023-02-17T11:09:59.131Z,16.24
2023-02-17T11:12:32.891Z,16.68
2023-02-17T11:15:04.514Z,16.62
2023-02-17T11:17:39.286Z,16.76
2023-02-17T11:20:27.255Z,16.80
2023-02-17T11:23:22.209Z,16.48
2023-02-17T11:25:59.831Z,16.52
2023-02-17T11:28:27.618Z,16.40
2023-02-17T11:30:58.321Z,16.48
2023-02-17T11:33:33.182Z,16.71
2023-02-17T11:36:01.468Z,16.61
2023-02-17T11:38:43.822Z,16.17
2023-02-17T11:41:11.282Z,16.59
2023-02-17T11:43:39.726Z,16.59
2023-02-17T11:46:30.507Z,16.69
2023-02-17T11:49:37.487Z,16.73
2023-02-17T11:52:26.314Z,16.71
2023-02-17T11:55:16.020Z,16.93
2023-02-17T11:57:49.400Z,17.12
2023-02-17T12:00:20.796Z,17.14
2023-02-17T12:03:47.038Z,17.22
2023-02-17T12:06:21.183Z,16.85
2023-02-17T12:09:27.247Z,17.13
2023-02-17T12:12:11.391Z,17.14
2023-02-17T12:15:02.999Z,16.56
2023-02-17T12:17:45.245Z,16.62
2023-02-17T12:20:30.537Z,16.90
2023-02-17T12:23:15.737Z,16.92
2023-02-17T12:25:50.726Z,16.89
2023-02-17T12:28:55.415Z,16.90
2023-02-17T12:31:51.827Z,17.04
2023-02-17T12:34:29.534Z,17.20
2023-02-17T12:36:58.701Z,17.03
2023-02-17T12:39:34.124Z,17.02
2023-02-17T12:42:07.367Z,17.10
2023-02-17T12:44:41.798Z,17.19
2023-02-17T12:47:16.691Z,17.03
2023-02-17T12:49:50.430Z,17.16
2023-02-17T12:52:23.782Z,16.87
2023-02-17T12:55:01.367Z,17.00
2023-02-17T12:57:41.965Z,17.27
2023-02-17T13:00:20.811Z,17.22
2023-02-17T13:02:48.304Z,17.38
2023-02-17T13:05:26.249Z,17.27
2023-02-17T13:08:00.128Z,17.09
2023-02-17T13:10:36.072Z,17.23
2023-02-17T13:13:07.885Z,17.17
2023-02-17T13:15:43.327Z,17.02
2023-02-17T13:18:26.237Z,17.33
2023-02-17T13:20:57.155Z,17.27
2023-02-17T13:23:35.471Z,17.23
2023-02-17T13:29:36.237Z,17.36
2023-02-17T13:32:07.298Z,17.43
2023-02-17T13:34:36.914Z,17.20
2023-02-17T13:37:23.816Z,17.33
2023-02-17T13:39:51.186Z,16.99
2023-02-17T13:42:37.605Z,17.13
2023-02-17T13:45:20.452Z,16.99
2023-02-17T13:47:51.239Z,17.16
2023-02-17T13:50:33.140Z,17.24
2023-02-17T13:53:01.717Z,17.13
2023-02-17T13:55:29.655Z,16.73
2023-02-17T13:57:59.153Z,16.86
2023-02-17T14:00:29.082Z,16.85
2023-02-17T14:03:02.279Z,16.72
2023-02-17T14:05:40.057Z,16.79
2023-02-17T14:08:17.115Z,16.66
2023-02-17T14:10:44.518Z,16.52
2023-02-17T14:13:13.371Z,16.69
2023-02-17T14:15:51.891Z,16.85
2023-02-17T14:18:35.047Z,16.93
2023-02-17T14:21:07.380Z,16.85
2023-02-17T14:23:47.114Z,16.66
2023-02-17T14:29:19.189Z,16.62
2023-02-17T14:31:49.219Z,16.72
2023-02-17T14:34:32.463Z,16.87
2023-02-17T14:37:09.290Z,16.69
2023-02-17T14:39:39.418Z,16.58
2023-02-17T14:42:06.694Z,16.61
2023-02-17T14:44:37.078Z,16.63
2023-02-17T14:47:04.256Z,16.31
2023-02-17T14:49:32.761Z,16.10
2023-02-17T14:52:01.648Z,16.36
2023-02-17T14:54:30.514Z,16.22
2023-02-17T14:57:04.938Z,16.05
2023-02-17T14:59:32.587Z,16.04
2023-02-17T15:02:00.253Z,15.77
2023-02-17T15:04:27.335Z,15.96
2023-02-17T15:06:55.981Z,15.80
2023-02-17T15:09:33.035Z,15.93
2023-02-17T15:11:59.921Z,15.93
2023-02-17T15:14:27.889Z,15.86
2023-02-17T15:16:54.776Z,16.08
2023-02-17T15:19:21.855Z,16.08
2023-02-17T15:21:51.658Z,15.98
2023-02-17T15:24:25.208Z,16.18
2023-02-17T15:26:53.344Z,15.93
2023-02-17T15:29:25.133Z,15.90
2023-02-17T15:31:54.950Z,15.67
2023-02-17T15:34:25.527Z,15.54
2023-02-17T15:36:52.493Z,15.70
2023-02-17T15:39:21.008Z,16.00
2023-02-17T15:41:50.472Z,15.63
2023-02-17T15:44:21.771Z,15.96
2023-02-17T15:46:51.718Z,16.02
2023-02-17T15:49:18.837Z,15.89
2023-02-17T15:51:45.788Z,15.67
2023-02-17T15:54:13.053Z,15.74
2023-02-17T15:56:47.020Z,15.84
2023-02-17T15:59:19.837Z,15.74
2023-02-17T16:01:46.772Z,15.63
2023-02-17T16:04:15.689Z,15.42
2023-02-17T16:06:43.037Z,15.23
2023-02-17T16:09:10.566Z,15.32
2023-02-17T16:11:48.519Z,15.30
2023-02-17T16:14:25.069Z,15.09
2023-02-17T16:16:52.311Z,15.03
2023-02-17T16:19:19.657Z,14.96
2023-02-17T16:21:46.532Z,14.93
2023-02-17T16:24:13.394Z,15.06
2023-02-17T16:26:44.555Z,14.98
2023-02-17T16:29:16.830Z,14.65
2023-02-17T16:31:44.236Z,14.71
2023-02-17T16:34:14.904Z,14.70
2023-02-17T16:36:42.055Z,14.71
2023-02-17T16:39:16.545Z,14.71
2023-02-17T16:41:45.406Z,14.47
2023-02-17T16:44:14.066Z,14.64
2023-02-17T16:46:48.903Z,14.51
2023-02-17T16:49:20.604Z,14.47
2023-02-17T16:51:47.983Z,14.50
2023-02-17T16:54:16.995Z,14.44
2023-02-17T16:56:49.530Z,14.44
2023-02-17T16:59:19.758Z,14.48
2023-02-17T17:01:48.533Z,14.37
2023-02-17T17:04:15.408Z,14.50
2023-02-17T17:06:46.432Z,14.68
2023-02-17T17:09:16.500Z,14.44
2023-02-17T17:11:45.159Z,14.31
2023-02-17T17:14:12.295Z,14.51
2023-02-17T17:16:42.158Z,14.27
2023-02-17T17:19:14.379Z,14.40
2023-02-17T17:21:41.747Z,14.30
2023-02-17T17:24:11.503Z,14.13
2023-02-17T17:26:42.230Z,14.36
2023-02-17T17:29:14.755Z,14.20
2023-02-17T17:31:42.123Z,14.34
2023-02-17T17:34:09.216Z,14.19
2023-02-17T17:36:40.130Z,14.06
2023-02-17T17:39:12.308Z,14.29
2023-02-17T17:41:39.538Z,14.26
2023-02-17T17:44:06.930Z,14.13
2023-02-17T17:46:37.720Z,14.12
2023-02-17T17:49:06.409Z,14.13
2023-02-17T17:51:34.029Z,14.16
2023-02-17T17:54:01.109Z,14.14
2023-02-17T17:56:31.263Z,14.40
2023-02-17T17:59:01.548Z,14.37
2023-02-17T18:01:33.376Z,14.07
2023-02-17T18:04:03.734Z,14.26
2023-02-17T18:06:36.818Z,14.47
2023-02-17T18:09:08.978Z,14.42
2023-02-17T18:11:39.912Z,14.26
2023-02-17T18:14:13.837Z,14.10
2023-02-17T18:16:43.219Z,14.14
2023-02-17T18:19:14.504Z,14.12
2023-02-17T18:21:41.577Z,13.85
2023-02-17T18:24:09.289Z,13.99
2023-02-17T18:26:36.601Z,14.06
2023-02-17T18:29:04.630Z,14.07
2023-02-17T18:31:32.217Z,14.19
2023-02-17T18:33:59.236Z,14.29
2023-02-17T18:36:27.859Z,14.02
2023-02-17T18:38:55.222Z,14.13
2023-02-17T18:41:25.627Z,14.36
2023-02-17T18:43:53.902Z,14.24
2023-02-17T18:46:25.840Z,13.78
2023-02-17T18:48:55.367Z,13.56
2023-02-17T18:51:23.480Z,13.65
2023-02-17T18:53:52.978Z,13.62
2023-02-17T18:56:22.966Z,13.29
2023-02-17T18:58:52.381Z,13.58
2023-02-17T19:01:23.448Z,13.82
2023-02-17T19:03:51.118Z,13.80
2023-02-17T19:06:21.836Z,13.69
2023-02-17T19:08:49.205Z,13.73
2023-02-17T19:11:20.771Z,13.85
2023-02-17T19:13:48.740Z,13.79
2023-02-17T19:16:21.846Z,14.05
2023-02-17T19:18:49.321Z,13.89
2023-02-17T19:21:17.201Z,13.51
2023-02-17T19:23:44.734Z,13.78
2023-02-17T19:26:13.826Z,13.89
2023-02-17T19:28:43.545Z,13.70
2023-02-17T19:31:15.522Z,13.76
2023-02-17T19:33:42.988Z,13.73
2023-02-17T19:36:12.908Z,13.86
2023-02-17T19:38:39.784Z,13.93
2023-02-17T19:41:10.494Z,14.12
2023-02-17T19:43:38.238Z,13.66
2023-02-17T19:46:07.623Z,14.14
2023-02-17T19:48:35.156Z,14.33
2023-02-17T19:51:06.295Z,14.50
2023-02-17T19:53:34.170Z,14.40
2023-02-17T19:56:11.556Z,14.34
2023-02-17T19:58:39.423Z,14.16
2023-02-17T20:04:05.651Z,13.91
2023-02-17T20:06:37.630Z,13.95
2023-02-17T20:09:07.731Z,14.16
2023-02-17T20:11:34.750Z,13.91
2023-02-17T20:14:02.932Z,14.19
2023-02-17T20:16:32.002Z,13.90
2023-02-17T20:19:01.924Z,14.05
2023-02-17T20:21:30.911Z,14.03
2023-02-17T20:23:58.824Z,14.03
2023-02-17T20:26:29.993Z,14.19
2023-02-17T20:29:00.621Z,14.26
2023-02-17T20:31:28.150Z,14.38
2023-02-17T20:33:56.927Z,14.16
2023-02-17T20:36:23.989Z,14.34
2023-02-17T20:38:50.912Z,14.14
2023-02-17T20:41:22.820Z,14.10
2023-02-17T20:43:51.178Z,14.12
2023-02-17T20:46:43.716Z,13.89
2023-02-17T20:49:12.862Z,13.95
2023-02-17T20:51:41.284Z,13.66
2023-02-17T20:54:08.590Z,13.86
2023-02-17T20:56:39.163Z,13.99
2023-02-17T20:59:08.037Z,13.95
2023-02-17T21:01:35.852Z,14.00
2023-02-17T21:04:02.967Z,14.02
2023-02-17T21:06:36.016Z,14.10
2023-02-17T21:09:06.974Z,14.33
2023-02-17T21:11:34.481Z,14.03
2023-02-17T21:14:01.479Z,14.12
2023-02-17T21:16:31.783Z,14.16
2023-02-17T21:19:00.405Z,13.87
2023-02-17T21:21:27.803Z,13.87
2023-02-17T21:23:57.105Z,13.72
2023-02-17T21:26:24.249Z,13.89
2023-02-17T21:29:16.198Z,13.90
2023-02-17T21:31:43.204Z,13.59
2023-02-17T21:34:10.646Z,13.79
2023-02-17T21:36:37.598Z,14.17
2023-02-17T21:39:06.105Z,14.12
2023-02-17T21:41:33.515Z,13.85
2023-02-17T21:44:01.093Z,13.99
2023-02-17T21:46:28.768Z,13.91
2023-02-17T21:48:57.032Z,14.13
2023-02-17T21:51:24.419Z,14.17
2023-02-17T21:53:52.117Z,13.86
2023-02-17T21:56:21.682Z,13.85
2023-02-17T21:58:52.540Z,13.62
2023-02-17T22:01:20.488Z,13.82
2023-02-17T22:03:47.619Z,14.12
2023-02-17T22:06:17.810Z,13.91
2023-02-17T22:08:45.651Z,13.97
2023-02-17T22:11:17.499Z,14.02
2023-02-17T22:13:46.696Z,14.16
2023-02-17T22:16:14.603Z,13.91
2023-02-17T22:18:42.219Z,13.82
2023-02-17T22:21:14.074Z,13.93
2023-02-17T22:23:43.286Z,14.03
2023-02-17T22:26:13.709Z,14.10
2023-02-17T22:28:41.810Z,14.09
2023-02-17T22:31:13.254Z,14.16
2023-02-17T22:33:40.307Z,13.82
2023-02-17T22:36:10.429Z,14.00
2023-02-17T22:38:37.904Z,14.07
2023-02-17T22:41:07.110Z,13.97
2023-02-17T22:43:36.005Z,13.86
2023-02-17T22:46:04.285Z,13.70
2023-02-17T22:48:35.827Z,13.73
2023-02-17T22:51:06.259Z,13.79
2023-02-17T22:53:35.405Z,14.05
2023-02-17T22:56:03.751Z,13.79
2023-02-17T22:58:30.868Z,13.69
2023-02-17T23:03:59.076Z,13.79
2023-02-17T23:06:29.146Z,14.00
2023-02-17T23:08:56.703Z,14.03
2023-02-17T23:11:26.473Z,13.76
2023-02-17T23:13:53.543Z,13.95
2023-02-17T23:16:20.537Z,13.73
2023-02-17T23:18:47.772Z,13.65
2023-02-17T23:21:15.938Z,13.89
2023-02-17T23:23:43.206Z,13.96
2023-02-17T23:26:10.645Z,13.76
2023-02-17T23:28:37.973Z,14.03
2023-02-17T23:31:10.816Z,14.06
2023-02-17T23:33:39.646Z,13.56
2023-02-17T23:36:09.173Z,13.68
2023-02-17T23:38:37.906Z,13.95
2023-02-17T23:41:05.144Z,14.03
2023-02-17T23:43:32.294Z,13.68
2023-02-17T23:45:59.629Z,13.70
2023-02-17T23:48:27.039Z,13.66
2023-02-17T23:50:58.995Z,13.54
2023-02-17T23:53:25.986Z,13.90
2023-02-17T23:56:04.258Z,14.00
2023-02-17T23:58:31.584Z,13.95
